sensor_id;sensor_type;location;lat;lon;timestamp;P1;durP1;ratioP1;P2;durP2;ratioP2
27313;SDS011;14800;48.174;9.798;2022-12-18T00:00:31;87.75;;;35.25;;
27313;SDS011;14800;48.174;9.798;2022-12-18T00:02:57;89.18;;;35.97;;
27313;SDS011;14800;48.174;9.798;2022-12-18T00:05:22;86.55;;;34.33;;
27313;SDS011;14800;48.174;9.798;2022-12-18T00:07:48;85.72;;;34.75;;
27313;SDS011;14800;48.174;9.798;2022-12-18T00:10:14;86.60;;;33.97;;
27313;SDS011;14800;48.174;9.798;2022-12-18T00:12:39;93.57;;;37.38;;
27313;SDS011;14800;48.174;9.798;2022-12-18T00:15:07;81.20;;;33.40;;
27313;SDS011;14800;48.174;9.798;2022-12-18T00:17:33;84.95;;;34.47;;
27313;SDS011;14800;48.174;9.798;2022-12-18T00:19:59;80.03;;;33.80;;
27313;SDS011;14800;48.174;9.798;2022-12-18T00:22:24;85.28;;;34.25;;
27313;SDS011;14800;48.174;9.798;2022-12-18T00:24:50;84.40;;;33.72;;
27313;SDS011;14800;48.174;9.798;2022-12-18T00:27:15;89.32;;;34.20;;
27313;SDS011;14800;48.174;9.798;2022-12-18T00:29:41;80.20;;;33.25;;
27313;SDS011;14800;48.174;9.798;2022-12-18T00:32:06;80.53;;;33.78;;
27313;SDS011;14800;48.174;9.798;2022-12-18T00:34:32;82.20;;;34.10;;
27313;SDS011;14800;48.174;9.798;2022-12-18T00:36:57;80.80;;;33.42;;
27313;SDS011;14800;48.174;9.798;2022-12-18T00:39:23;87.88;;;33.35;;
27313;SDS011;14800;48.174;9.798;2022-12-18T00:41:49;92.35;;;35.45;;
27313;SDS011;14800;48.174;9.798;2022-12-18T00:44:33;88.25;;;33.58;;
27313;SDS011;14800;48.174;9.798;2022-12-18T00:46:58;88.88;;;34.55;;
27313;SDS011;14800;48.174;9.798;2022-12-18T00:49:24;87.97;;;34.60;;
27313;SDS011;14800;48.174;9.798;2022-12-18T00:51:49;82.07;;;33.33;;
27313;SDS011;14800;48.174;9.798;2022-12-18T00:54:15;86.90;;;33.65;;
27313;SDS011;14800;48.174;9.798;2022-12-18T00:56:41;82.32;;;32.58;;
27313;SDS011;14800;48.174;9.798;2022-12-18T00:59:06;85.93;;;32.72;;
27313;SDS011;14800;48.174;9.798;2022-12-18T01:01:32;86.55;;;33.72;;
27313;SDS011;14800;48.174;9.798;2022-12-18T01:03:59;84.93;;;33.85;;
27313;SDS011;14800;48.174;9.798;2022-12-18T01:06:25;86.32;;;34.05;;
27313;SDS011;14800;48.174;9.798;2022-12-18T01:08:51;83.53;;;33.17;;
27313;SDS011;14800;48.174;9.798;2022-12-18T01:11:18;88.25;;;34.67;;
27313;SDS011;14800;48.174;9.798;2022-12-18T01:13:45;89.95;;;35.90;;
27313;SDS011;14800;48.174;9.798;2022-12-18T01:16:15;88.30;;;33.75;;
27313;SDS011;14800;48.174;9.798;2022-12-18T01:18:41;97.30;;;35.05;;
27313;SDS011;14800;48.174;9.798;2022-12-18T01:21:08;90.68;;;35.10;;
27313;SDS011;14800;48.174;9.798;2022-12-18T01:23:35;84.03;;;31.63;;
27313;SDS011;14800;48.174;9.798;2022-12-18T01:26:08;87.50;;;34.00;;
27313;SDS011;14800;48.174;9.798;2022-12-18T01:28:35;86.35;;;32.55;;
27313;SDS011;14800;48.174;9.798;2022-12-18T01:31:09;82.10;;;32.85;;
27313;SDS011;14800;48.174;9.798;2022-12-18T01:33:39;89.53;;;34.03;;
27313;SDS011;14800;48.174;9.798;2022-12-18T01:36:05;81.80;;;30.65;;
27313;SDS011;14800;48.174;9.798;2022-12-18T01:38:30;93.20;;;34.03;;
27313;SDS011;14800;48.174;9.798;2022-12-18T01:40:57;85.85;;;33.55;;
27313;SDS011;14800;48.174;9.798;2022-12-18T01:43:40;83.63;;;33.10;;
27313;SDS011;14800;48.174;9.798;2022-12-18T01:46:26;93.13;;;34.72;;
27313;SDS011;14800;48.174;9.798;2022-12-18T01:48:57;84.93;;;33.83;;
27313;SDS011;14800;48.174;9.798;2022-12-18T01:51:25;97.70;;;35.97;;
27313;SDS011;14800;48.174;9.798;2022-12-18T01:53:52;86.05;;;33.35;;
27313;SDS011;14800;48.174;9.798;2022-12-18T01:56:18;86.88;;;32.95;;
27313;SDS011;14800;48.174;9.798;2022-12-18T02:01:26;97.20;;;35.38;;
27313;SDS011;14800;48.174;9.798;2022-12-18T02:03:56;93.70;;;34.53;;
27313;SDS011;14800;48.174;9.798;2022-12-18T02:06:39;87.43;;;33.30;;
27313;SDS011;14800;48.174;9.798;2022-12-18T02:17:30;86.70;;;32.05;;
27313;SDS011;14800;48.174;9.798;2022-12-18T02:20:07;85.70;;;32.83;;
27313;SDS011;14800;48.174;9.798;2022-12-18T02:27:50;87.63;;;34.25;;
27313;SDS011;14800;48.174;9.798;2022-12-18T02:30:16;89.18;;;32.30;;
27313;SDS011;14800;48.174;9.798;2022-12-18T02:32:44;90.68;;;34.35;;
27313;SDS011;14800;48.174;9.798;2022-12-18T02:35:20;92.40;;;33.85;;
27313;SDS011;14800;48.174;9.798;2022-12-18T02:37:49;97.70;;;33.75;;
27313;SDS011;14800;48.174;9.798;2022-12-18T02:40:19;93.95;;;34.35;;
27313;SDS011;14800;48.174;9.798;2022-12-18T02:42:47;86.88;;;32.50;;
27313;SDS011;14800;48.174;9.798;2022-12-18T02:45:12;91.10;;;34.17;;
27313;SDS011;14800;48.174;9.798;2022-12-18T02:47:39;92.70;;;34.65;;
27313;SDS011;14800;48.174;9.798;2022-12-18T03:00:59;101.18;;;35.80;;
27313;SDS011;14800;48.174;9.798;2022-12-18T03:03:50;96.82;;;35.75;;
27313;SDS011;14800;48.174;9.798;2022-12-18T03:08:51;97.05;;;33.22;;
27313;SDS011;14800;48.174;9.798;2022-12-18T03:11:23;99.40;;;35.42;;
27313;SDS011;14800;48.174;9.798;2022-12-18T03:14:11;99.32;;;36.67;;
27313;SDS011;14800;48.174;9.798;2022-12-18T03:16:40;96.20;;;35.45;;
27313;SDS011;14800;48.174;9.798;2022-12-18T03:19:08;104.93;;;37.05;;
27313;SDS011;14800;48.174;9.798;2022-12-18T03:21:42;91.13;;;34.97;;
27313;SDS011;14800;48.174;9.798;2022-12-18T03:24:10;101.75;;;35.67;;
27313;SDS011;14800;48.174;9.798;2022-12-18T03:26:37;98.10;;;36.08;;
27313;SDS011;14800;48.174;9.798;2022-12-18T03:29:07;95.50;;;35.20;;
27313;SDS011;14800;48.174;9.798;2022-12-18T03:31:40;94.57;;;34.35;;
27313;SDS011;14800;48.174;9.798;2022-12-18T03:34:14;102.47;;;34.83;;
27313;SDS011;14800;48.174;9.798;2022-12-18T03:36:42;98.30;;;33.90;;
27313;SDS011;14800;48.174;9.798;2022-12-18T03:39:08;91.25;;;33.08;;
27313;SDS011;14800;48.174;9.798;2022-12-18T03:41:38;92.47;;;33.97;;
27313;SDS011;14800;48.174;9.798;2022-12-18T03:50:17;98.80;;;33.70;;
27313;SDS011;14800;48.174;9.798;2022-12-18T03:52:52;100.88;;;34.58;;
27313;SDS011;14800;48.174;9.798;2022-12-18T03:55:22;106.13;;;35.35;;
27313;SDS011;14800;48.174;9.798;2022-12-18T03:57:49;102.30;;;34.92;;
27313;SDS011;14800;48.174;9.798;2022-12-18T04:00:17;98.80;;;35.75;;
27313;SDS011;14800;48.174;9.798;2022-12-18T04:02:53;99.68;;;34.38;;
27313;SDS011;14800;48.174;9.798;2022-12-18T04:05:21;98.90;;;35.75;;
27313;SDS011;14800;48.174;9.798;2022-12-18T04:07:49;103.15;;;35.85;;
27313;SDS011;14800;48.174;9.798;2022-12-18T04:10:17;102.07;;;34.85;;
27313;SDS011;14800;48.174;9.798;2022-12-18T04:12:43;100.07;;;34.67;;
27313;SDS011;14800;48.174;9.798;2022-12-18T04:15:09;98.72;;;34.95;;
27313;SDS011;14800;48.174;9.798;2022-12-18T04:17:35;99.22;;;34.47;;
27313;SDS011;14800;48.174;9.798;2022-12-18T04:20:01;92.68;;;34.25;;
27313;SDS011;14800;48.174;9.798;2022-12-18T04:22:27;90.60;;;33.72;;
27313;SDS011;14800;48.174;9.798;2022-12-18T04:24:53;105.35;;;37.15;;
27313;SDS011;14800;48.174;9.798;2022-12-18T04:27:21;100.38;;;33.90;;
27313;SDS011;14800;48.174;9.798;2022-12-18T04:29:47;108.07;;;36.97;;
27313;SDS011;14800;48.174;9.798;2022-12-18T04:32:12;95.72;;;34.78;;
27313;SDS011;14800;48.174;9.798;2022-12-18T04:34:38;103.78;;;36.65;;
27313;SDS011;14800;48.174;9.798;2022-12-18T04:37:03;102.60;;;35.83;;
27313;SDS011;14800;48.174;9.798;2022-12-18T04:39:29;97.95;;;35.78;;
27313;SDS011;14800;48.174;9.798;2022-12-18T04:41:55;100.60;;;35.20;;
27313;SDS011;14800;48.174;9.798;2022-12-18T04:44:20;108.10;;;38.03;;
27313;SDS011;14800;48.174;9.798;2022-12-18T04:46:46;100.25;;;36.03;;
27313;SDS011;14800;48.174;9.798;2022-12-18T04:49:11;100.93;;;36.75;;
27313;SDS011;14800;48.174;9.798;2022-12-18T04:51:37;107.65;;;36.13;;
27313;SDS011;14800;48.174;9.798;2022-12-18T04:54:03;103.47;;;37.25;;
27313;SDS011;14800;48.174;9.798;2022-12-18T04:56:30;97.65;;;35.40;;
27313;SDS011;14800;48.174;9.798;2022-12-18T04:58:56;103.10;;;36.00;;
27313;SDS011;14800;48.174;9.798;2022-12-18T05:01:22;103.70;;;36.03;;
27313;SDS011;14800;48.174;9.798;2022-12-18T05:03:47;95.35;;;33.63;;
27313;SDS011;14800;48.174;9.798;2022-12-18T05:06:13;100.88;;;35.53;;
27313;SDS011;14800;48.174;9.798;2022-12-18T05:08:38;98.20;;;33.35;;
27313;SDS011;14800;48.174;9.798;2022-12-18T05:11:08;95.68;;;35.28;;
27313;SDS011;14800;48.174;9.798;2022-12-18T05:13:36;98.00;;;34.78;;
27313;SDS011;14800;48.174;9.798;2022-12-18T05:16:02;97.32;;;35.17;;
27313;SDS011;14800;48.174;9.798;2022-12-18T05:18:29;100.90;;;35.92;;
27313;SDS011;14800;48.174;9.798;2022-12-18T05:20:55;101.78;;;36.53;;
27313;SDS011;14800;48.174;9.798;2022-12-18T05:23:21;101.32;;;35.50;;
27313;SDS011;14800;48.174;9.798;2022-12-18T05:25:52;103.85;;;36.47;;
27313;SDS011;14800;48.174;9.798;2022-12-18T05:28:22;100.65;;;37.08;;
27313;SDS011;14800;48.174;9.798;2022-12-18T05:30:53;104.53;;;35.65;;
27313;SDS011;14800;48.174;9.798;2022-12-18T05:33:20;108.40;;;36.47;;
27313;SDS011;14800;48.174;9.798;2022-12-18T05:35:51;106.97;;;37.90;;
27313;SDS011;14800;48.174;9.798;2022-12-18T05:38:18;108.15;;;37.05;;
27313;SDS011;14800;48.174;9.798;2022-12-18T05:40:44;108.93;;;37.42;;
27313;SDS011;14800;48.174;9.798;2022-12-18T05:43:10;110.10;;;37.22;;
27313;SDS011;14800;48.174;9.798;2022-12-18T05:45:36;104.32;;;37.53;;
27313;SDS011;14800;48.174;9.798;2022-12-18T05:48:03;122.57;;;42.67;;
27313;SDS011;14800;48.174;9.798;2022-12-18T05:50:29;106.13;;;36.15;;
27313;SDS011;14800;48.174;9.798;2022-12-18T05:52:54;105.30;;;37.30;;
27313;SDS011;14800;48.174;9.798;2022-12-18T05:55:20;108.03;;;37.45;;
27313;SDS011;14800;48.174;9.798;2022-12-18T05:57:45;105.82;;;38.88;;
27313;SDS011;14800;48.174;9.798;2022-12-18T06:00:11;104.43;;;35.95;;
27313;SDS011;14800;48.174;9.798;2022-12-18T06:02:37;105.72;;;36.70;;
27313;SDS011;14800;48.174;9.798;2022-12-18T06:05:03;104.15;;;36.05;;
27313;SDS011;14800;48.174;9.798;2022-12-18T06:07:29;103.15;;;35.72;;
27313;SDS011;14800;48.174;9.798;2022-12-18T06:09:54;99.55;;;34.92;;
27313;SDS011;14800;48.174;9.798;2022-12-18T06:12:20;101.97;;;35.47;;
27313;SDS011;14800;48.174;9.798;2022-12-18T06:14:46;94.90;;;34.45;;
27313;SDS011;14800;48.174;9.798;2022-12-18T06:17:11;94.30;;;34.80;;
27313;SDS011;14800;48.174;9.798;2022-12-18T06:19:37;103.00;;;34.92;;
27313;SDS011;14800;48.174;9.798;2022-12-18T06:22:02;98.65;;;33.75;;
27313;SDS011;14800;48.174;9.798;2022-12-18T06:24:28;98.47;;;34.05;;
27313;SDS011;14800;48.174;9.798;2022-12-18T06:26:55;93.80;;;34.10;;
27313;SDS011;14800;48.174;9.798;2022-12-18T06:29:21;95.78;;;33.03;;
27313;SDS011;14800;48.174;9.798;2022-12-18T06:31:46;100.28;;;36.40;;
27313;SDS011;14800;48.174;9.798;2022-12-18T06:34:12;110.95;;;36.35;;
27313;SDS011;14800;48.174;9.798;2022-12-18T06:36:37;104.00;;;35.33;;
27313;SDS011;14800;48.174;9.798;2022-12-18T06:39:03;98.88;;;34.65;;
27313;SDS011;14800;48.174;9.798;2022-12-18T06:41:28;101.45;;;33.92;;
27313;SDS011;14800;48.174;9.798;2022-12-18T06:43:54;99.30;;;35.65;;
27313;SDS011;14800;48.174;9.798;2022-12-18T06:46:20;100.57;;;33.22;;
27313;SDS011;14800;48.174;9.798;2022-12-18T06:48:49;93.47;;;34.38;;
27313;SDS011;14800;48.174;9.798;2022-12-18T06:51:18;94.22;;;33.08;;
27313;SDS011;14800;48.174;9.798;2022-12-18T06:53:45;101.93;;;34.95;;
27313;SDS011;14800;48.174;9.798;2022-12-18T06:56:10;107.05;;;35.60;;
27313;SDS011;14800;48.174;9.798;2022-12-18T06:58:37;96.38;;;34.42;;
27313;SDS011;14800;48.174;9.798;2022-12-18T07:01:04;96.50;;;34.70;;
27313;SDS011;14800;48.174;9.798;2022-12-18T07:03:34;106.65;;;36.42;;
27313;SDS011;14800;48.174;9.798;2022-12-18T07:05:59;105.00;;;37.00;;
27313;SDS011;14800;48.174;9.798;2022-12-18T07:08:25;113.55;;;36.60;;
27313;SDS011;14800;48.174;9.798;2022-12-18T07:10:51;98.05;;;35.03;;
27313;SDS011;14800;48.174;9.798;2022-12-18T07:13:17;109.55;;;36.45;;
27313;SDS011;14800;48.174;9.798;2022-12-18T07:15:43;93.85;;;33.58;;
27313;SDS011;14800;48.174;9.798;2022-12-18T07:18:09;93.65;;;33.63;;
27313;SDS011;14800;48.174;9.798;2022-12-18T07:20:34;94.65;;;34.10;;
27313;SDS011;14800;48.174;9.798;2022-12-18T07:23:04;96.72;;;32.58;;
27313;SDS011;14800;48.174;9.798;2022-12-18T07:25:30;91.68;;;33.78;;
27313;SDS011;14800;48.174;9.798;2022-12-18T07:28:02;86.28;;;32.60;;
27313;SDS011;14800;48.174;9.798;2022-12-18T07:30:28;90.32;;;31.75;;
27313;SDS011;14800;48.174;9.798;2022-12-18T07:32:53;89.90;;;34.58;;
27313;SDS011;14800;48.174;9.798;2022-12-18T07:35:19;91.38;;;33.45;;
27313;SDS011;14800;48.174;9.798;2022-12-18T07:37:44;88.60;;;31.88;;
27313;SDS011;14800;48.174;9.798;2022-12-18T07:40:10;90.85;;;32.85;;
27313;SDS011;14800;48.174;9.798;2022-12-18T07:42:36;89.28;;;32.65;;
27313;SDS011;14800;48.174;9.798;2022-12-18T07:45:02;85.25;;;32.30;;
27313;SDS011;14800;48.174;9.798;2022-12-18T07:47:28;83.65;;;31.38;;
27313;SDS011;14800;48.174;9.798;2022-12-18T07:50:01;79.65;;;28.88;;
27313;SDS011;14800;48.174;9.798;2022-12-18T07:52:28;72.05;;;27.27;;
27313;SDS011;14800;48.174;9.798;2022-12-18T07:54:53;74.57;;;27.20;;
27313;SDS011;14800;48.174;9.798;2022-12-18T07:57:19;76.68;;;29.58;;
27313;SDS011;14800;48.174;9.798;2022-12-18T07:59:44;79.47;;;29.25;;
27313;SDS011;14800;48.174;9.798;2022-12-18T08:02:10;76.97;;;27.95;;
27313;SDS011;14800;48.174;9.798;2022-12-18T08:04:38;70.95;;;26.67;;
27313;SDS011;14800;48.174;9.798;2022-12-18T08:07:03;71.85;;;27.75;;
27313;SDS011;14800;48.174;9.798;2022-12-18T08:09:29;63.05;;;25.40;;
27313;SDS011;14800;48.174;9.798;2022-12-18T08:11:57;51.00;;;20.15;;
27313;SDS011;14800;48.174;9.798;2022-12-18T08:14:22;49.55;;;19.75;;
27313;SDS011;14800;48.174;9.798;2022-12-18T08:16:48;48.80;;;19.85;;
27313;SDS011;14800;48.174;9.798;2022-12-18T08:19:13;45.30;;;18.33;;
27313;SDS011;14800;48.174;9.798;2022-12-18T08:21:39;46.35;;;18.83;;
27313;SDS011;14800;48.174;9.798;2022-12-18T08:24:05;49.22;;;19.58;;
27313;SDS011;14800;48.174;9.798;2022-12-18T08:26:31;55.53;;;21.98;;
27313;SDS011;14800;48.174;9.798;2022-12-18T08:28:57;48.40;;;19.02;;
27313;SDS011;14800;48.174;9.798;2022-12-18T08:31:25;47.88;;;18.10;;
27313;SDS011;14800;48.174;9.798;2022-12-18T08:33:52;47.78;;;19.23;;
27313;SDS011;14800;48.174;9.798;2022-12-18T08:36:18;45.20;;;18.73;;
27313;SDS011;14800;48.174;9.798;2022-12-18T08:38:44;43.03;;;18.70;;
27313;SDS011;14800;48.174;9.798;2022-12-18T08:41:11;47.58;;;18.80;;
27313;SDS011;14800;48.174;9.798;2022-12-18T08:43:38;49.08;;;19.67;;
27313;SDS011;14800;48.174;9.798;2022-12-18T08:46:23;47.38;;;19.50;;
27313;SDS011;14800;48.174;9.798;2022-12-18T08:48:51;50.78;;;20.25;;
27313;SDS011;14800;48.174;9.798;2022-12-18T08:51:17;46.25;;;19.23;;
27313;SDS011;14800;48.174;9.798;2022-12-18T08:53:44;47.88;;;20.63;;
27313;SDS011;14800;48.174;9.798;2022-12-18T08:56:10;45.28;;;19.17;;
27313;SDS011;14800;48.174;9.798;2022-12-18T08:58:36;48.78;;;18.90;;
27313;SDS011;14800;48.174;9.798;2022-12-18T09:01:02;50.15;;;18.88;;
27313;SDS011;14800;48.174;9.798;2022-12-18T09:03:29;47.35;;;18.60;;
27313;SDS011;14800;48.174;9.798;2022-12-18T09:05:55;51.15;;;20.73;;
27313;SDS011;14800;48.174;9.798;2022-12-18T09:08:21;49.80;;;20.70;;
27313;SDS011;14800;48.174;9.798;2022-12-18T09:10:47;46.92;;;18.92;;
27313;SDS011;14800;48.174;9.798;2022-12-18T09:13:15;50.47;;;21.25;;
27313;SDS011;14800;48.174;9.798;2022-12-18T09:15:42;49.35;;;20.27;;
27313;SDS011;14800;48.174;9.798;2022-12-18T09:18:12;49.05;;;20.05;;
27313;SDS011;14800;48.174;9.798;2022-12-18T09:20:39;51.90;;;22.40;;
27313;SDS011;14800;48.174;9.798;2022-12-18T09:23:05;54.10;;;21.00;;
27313;SDS011;14800;48.174;9.798;2022-12-18T09:25:31;50.97;;;19.90;;
27313;SDS011;14800;48.174;9.798;2022-12-18T09:28:02;53.85;;;21.17;;
27313;SDS011;14800;48.174;9.798;2022-12-18T09:30:28;55.72;;;22.85;;
27313;SDS011;14800;48.174;9.798;2022-12-18T09:32:54;50.95;;;21.02;;
27313;SDS011;14800;48.174;9.798;2022-12-18T09:35:20;48.78;;;19.95;;
27313;SDS011;14800;48.174;9.798;2022-12-18T09:37:46;51.92;;;20.33;;
27313;SDS011;14800;48.174;9.798;2022-12-18T09:40:15;50.17;;;19.42;;
27313;SDS011;14800;48.174;9.798;2022-12-18T09:42:48;45.88;;;18.67;;
27313;SDS011;14800;48.174;9.798;2022-12-18T09:45:22;48.17;;;18.35;;
27313;SDS011;14800;48.174;9.798;2022-12-18T09:47:49;42.60;;;17.88;;
27313;SDS011;14800;48.174;9.798;2022-12-18T09:52:49;42.70;;;17.70;;
27313;SDS011;14800;48.174;9.798;2022-12-18T10:00:51;39.88;;;15.88;;
27313;SDS011;14800;48.174;9.798;2022-12-18T10:03:17;36.67;;;15.80;;
27313;SDS011;14800;48.174;9.798;2022-12-18T10:08:23;39.85;;;15.98;;
27313;SDS011;14800;48.174;9.798;2022-12-18T10:19:33;36.85;;;15.32;;
27313;SDS011;14800;48.174;9.798;2022-12-18T10:25:02;47.13;;;19.40;;
27313;SDS011;14800;48.174;9.798;2022-12-18T10:27:40;48.85;;;19.92;;
27313;SDS011;14800;48.174;9.798;2022-12-18T10:30:13;39.45;;;17.08;;
27313;SDS011;14800;48.174;9.798;2022-12-18T10:32:40;42.83;;;17.23;;
27313;SDS011;14800;48.174;9.798;2022-12-18T10:35:14;40.70;;;16.88;;
27313;SDS011;14800;48.174;9.798;2022-12-18T10:40:49;43.45;;;16.98;;
27313;SDS011;14800;48.174;9.798;2022-12-18T10:43:28;43.95;;;17.42;;
27313;SDS011;14800;48.174;9.798;2022-12-18T10:48:36;47.78;;;18.00;;
27313;SDS011;14800;48.174;9.798;2022-12-18T10:51:11;45.03;;;17.85;;
27313;SDS011;14800;48.174;9.798;2022-12-18T10:56:27;41.13;;;17.15;;
27313;SDS011;14800;48.174;9.798;2022-12-18T10:59:14;42.67;;;17.27;;
27313;SDS011;14800;48.174;9.798;2022-12-18T11:01:51;36.13;;;15.65;;
27313;SDS011;14800;48.174;9.798;2022-12-18T11:04:18;38.95;;;15.60;;
27313;SDS011;14800;48.174;9.798;2022-12-18T11:09:28;41.42;;;15.93;;
27313;SDS011;14800;48.174;9.798;2022-12-18T11:12:08;38.92;;;16.08;;
27313;SDS011;14800;48.174;9.798;2022-12-18T11:14:43;37.70;;;15.60;;
27313;SDS011;14800;48.174;9.798;2022-12-18T11:17:19;37.70;;;15.82;;
27313;SDS011;14800;48.174;9.798;2022-12-18T11:19:51;35.53;;;15.52;;
27313;SDS011;14800;48.174;9.798;2022-12-18T11:22:26;39.00;;;16.50;;
27313;SDS011;14800;48.174;9.798;2022-12-18T11:25:01;41.95;;;17.02;;
27313;SDS011;14800;48.174;9.798;2022-12-18T11:27:30;37.03;;;14.77;;
27313;SDS011;14800;48.174;9.798;2022-12-18T11:30:10;36.97;;;15.32;;
27313;SDS011;14800;48.174;9.798;2022-12-18T11:32:48;38.53;;;16.20;;
27313;SDS011;14800;48.174;9.798;2022-12-18T11:35:19;37.13;;;15.45;;
27313;SDS011;14800;48.174;9.798;2022-12-18T11:37:50;38.55;;;15.48;;
27313;SDS011;14800;48.174;9.798;2022-12-18T11:40:29;39.70;;;15.40;;
27313;SDS011;14800;48.174;9.798;2022-12-18T11:45:35;35.85;;;15.43;;
27313;SDS011;14800;48.174;9.798;2022-12-18T11:48:14;38.25;;;16.02;;
27313;SDS011;14800;48.174;9.798;2022-12-18T11:50:47;42.83;;;17.60;;
27313;SDS011;14800;48.174;9.798;2022-12-18T11:53:18;41.97;;;16.33;;
27313;SDS011;14800;48.174;9.798;2022-12-18T12:11:55;38.58;;;16.02;;
27313;SDS011;14800;48.174;9.798;2022-12-18T12:14:34;37.88;;;16.05;;
27313;SDS011;14800;48.174;9.798;2022-12-18T12:17:24;34.47;;;14.45;;
27313;SDS011;14800;48.174;9.798;2022-12-18T12:23:22;36.97;;;15.27;;
27313;SDS011;14800;48.174;9.798;2022-12-18T12:25:41;38.15;;;15.80;;
27313;SDS011;14800;48.174;9.798;2022-12-18T12:28:29;35.22;;;15.40;;
27313;SDS011;14800;48.174;9.798;2022-12-18T12:39:09;40.80;;;16.17;;
27313;SDS011;14800;48.174;9.798;2022-12-18T12:41:39;41.95;;;17.40;;
27313;SDS011;14800;48.174;9.798;2022-12-18T12:44:28;43.30;;;17.45;;
27313;SDS011;14800;48.174;9.798;2022-12-18T12:46:59;48.67;;;20.55;;
27313;SDS011;14800;48.174;9.798;2022-12-18T12:49:32;47.20;;;19.30;;
27313;SDS011;14800;48.174;9.798;2022-12-18T12:52:06;44.42;;;17.65;;
27313;SDS011;14800;48.174;9.798;2022-12-18T12:54:37;56.38;;;23.42;;
27313;SDS011;14800;48.174;9.798;2022-12-18T12:57:12;37.72;;;15.68;;
27313;SDS011;14800;48.174;9.798;2022-12-18T13:00:11;39.80;;;16.10;;
27313;SDS011;14800;48.174;9.798;2022-12-18T13:05:54;38.53;;;16.00;;
27313;SDS011;14800;48.174;9.798;2022-12-18T13:08:30;42.20;;;17.08;;
27313;SDS011;14800;48.174;9.798;2022-12-18T13:10:58;39.75;;;16.42;;
27313;SDS011;14800;48.174;9.798;2022-12-18T13:13:49;42.65;;;16.67;;
27313;SDS011;14800;48.174;9.798;2022-12-18T13:16:21;37.83;;;16.23;;
27313;SDS011;14800;48.174;9.798;2022-12-18T13:18:52;37.63;;;15.25;;
27313;SDS011;14800;48.174;9.798;2022-12-18T13:21:30;37.45;;;15.52;;
27313;SDS011;14800;48.174;9.798;2022-12-18T13:24:15;38.38;;;16.23;;
27313;SDS011;14800;48.174;9.798;2022-12-18T13:26:48;43.97;;;16.90;;
27313;SDS011;14800;48.174;9.798;2022-12-18T13:29:21;44.15;;;18.33;;
27313;SDS011;14800;48.174;9.798;2022-12-18T13:32:19;39.33;;;15.95;;
27313;SDS011;14800;48.174;9.798;2022-12-18T13:34:46;41.22;;;16.48;;
27313;SDS011;14800;48.174;9.798;2022-12-18T13:39:56;39.25;;;16.02;;
27313;SDS011;14800;48.174;9.798;2022-12-18T13:48:14;37.28;;;16.42;;
27313;SDS011;14800;48.174;9.798;2022-12-18T13:50:42;39.53;;;16.85;;
27313;SDS011;14800;48.174;9.798;2022-12-18T13:53:13;37.85;;;15.77;;
27313;SDS011;14800;48.174;9.798;2022-12-18T13:55:46;40.40;;;15.82;;
27313;SDS011;14800;48.174;9.798;2022-12-18T13:58:12;41.30;;;16.98;;
27313;SDS011;14800;48.174;9.798;2022-12-18T14:00:41;42.30;;;17.10;;
27313;SDS011;14800;48.174;9.798;2022-12-18T14:03:21;39.95;;;15.43;;
27313;SDS011;14800;48.174;9.798;2022-12-18T14:06:02;39.47;;;16.13;;
27313;SDS011;14800;48.174;9.798;2022-12-18T14:08:36;41.70;;;16.33;;
27313;SDS011;14800;48.174;9.798;2022-12-18T14:11:06;48.67;;;17.55;;
27313;SDS011;14800;48.174;9.798;2022-12-18T14:13:43;46.05;;;16.33;;
27313;SDS011;14800;48.174;9.798;2022-12-18T14:16:11;40.40;;;16.83;;
27313;SDS011;14800;48.174;9.798;2022-12-18T14:18:48;43.45;;;17.30;;
27313;SDS011;14800;48.174;9.798;2022-12-18T14:21:27;38.08;;;16.75;;
27313;SDS011;14800;48.174;9.798;2022-12-18T14:24:14;41.80;;;16.67;;
27313;SDS011;14800;48.174;9.798;2022-12-18T14:26:41;43.13;;;17.20;;
27313;SDS011;14800;48.174;9.798;2022-12-18T14:29:18;44.10;;;17.27;;
27313;SDS011;14800;48.174;9.798;2022-12-18T14:31:43;45.17;;;17.80;;
27313;SDS011;14800;48.174;9.798;2022-12-18T14:34:18;41.35;;;16.88;;
27313;SDS011;14800;48.174;9.798;2022-12-18T14:36:53;42.10;;;16.83;;
27313;SDS011;14800;48.174;9.798;2022-12-18T14:39:20;42.33;;;16.85;;
27313;SDS011;14800;48.174;9.798;2022-12-18T14:41:48;40.38;;;16.90;;
27313;SDS011;14800;48.174;9.798;2022-12-18T14:44:14;42.90;;;16.85;;
27313;SDS011;14800;48.174;9.798;2022-12-18T14:46:41;42.78;;;17.42;;
27313;SDS011;14800;48.174;9.798;2022-12-18T14:51:57;41.63;;;17.13;;
27313;SDS011;14800;48.174;9.798;2022-12-18T14:54:24;46.35;;;16.90;;
27313;SDS011;14800;48.174;9.798;2022-12-18T14:59:39;45.83;;;18.02;;
27313;SDS011;14800;48.174;9.798;2022-12-18T15:02:19;47.17;;;18.40;;
27313;SDS011;14800;48.174;9.798;2022-12-18T15:04:48;48.13;;;18.65;;
27313;SDS011;14800;48.174;9.798;2022-12-18T15:07:26;49.63;;;18.65;;
27313;SDS011;14800;48.174;9.798;2022-12-18T15:20:40;48.38;;;18.13;;
27313;SDS011;14800;48.174;9.798;2022-12-18T15:25:42;45.50;;;18.42;;
27313;SDS011;14800;48.174;9.798;2022-12-18T15:28:19;45.80;;;18.27;;
27313;SDS011;14800;48.174;9.798;2022-12-18T15:36:18;43.08;;;17.63;;
27313;SDS011;14800;48.174;9.798;2022-12-18T15:38:48;42.78;;;18.35;;
27313;SDS011;14800;48.174;9.798;2022-12-18T15:41:18;46.28;;;18.35;;
27313;SDS011;14800;48.174;9.798;2022-12-18T15:43:46;45.67;;;17.95;;
27313;SDS011;14800;48.174;9.798;2022-12-18T15:46:14;45.97;;;18.77;;
27313;SDS011;14800;48.174;9.798;2022-12-18T15:48:41;45.65;;;18.42;;
27313;SDS011;14800;48.174;9.798;2022-12-18T15:51:36;46.47;;;18.50;;
27313;SDS011;14800;48.174;9.798;2022-12-18T15:54:02;43.53;;;17.40;;
27313;SDS011;14800;48.174;9.798;2022-12-18T15:56:29;43.53;;;18.27;;
27313;SDS011;14800;48.174;9.798;2022-12-18T16:01:42;50.72;;;20.73;;
27313;SDS011;14800;48.174;9.798;2022-12-18T16:04:13;47.13;;;18.77;;
27313;SDS011;14800;48.174;9.798;2022-12-18T16:06:40;44.75;;;18.00;;
27313;SDS011;14800;48.174;9.798;2022-12-18T16:09:06;50.92;;;20.67;;
27313;SDS011;14800;48.174;9.798;2022-12-18T16:11:32;45.92;;;18.95;;
27313;SDS011;14800;48.174;9.798;2022-12-18T16:14:40;44.15;;;17.70;;
27313;SDS011;14800;48.174;9.798;2022-12-18T16:16:59;47.63;;;19.85;;
27313;SDS011;14800;48.174;9.798;2022-12-18T16:19:27;47.45;;;19.48;;
27313;SDS011;14800;48.174;9.798;2022-12-18T16:21:54;46.42;;;19.73;;
27313;SDS011;14800;48.174;9.798;2022-12-18T16:24:22;130.70;;;56.30;;
27313;SDS011;14800;48.174;9.798;2022-12-18T16:26:52;448.17;;;221.82;;
27313;SDS011;14800;48.174;9.798;2022-12-18T16:29:19;102.35;;;47.83;;
27313;SDS011;14800;48.174;9.798;2022-12-18T16:31:51;59.63;;;24.95;;
27313;SDS011;14800;48.174;9.798;2022-12-18T16:34:19;54.53;;;24.27;;
27313;SDS011;14800;48.174;9.798;2022-12-18T16:36:55;65.85;;;24.50;;
27313;SDS011;14800;48.174;9.798;2022-12-18T16:39:25;52.65;;;20.70;;
27313;SDS011;14800;48.174;9.798;2022-12-18T16:41:51;46.58;;;19.27;;
27313;SDS011;14800;48.174;9.798;2022-12-18T16:44:17;49.67;;;19.60;;
27313;SDS011;14800;48.174;9.798;2022-12-18T16:46:44;51.33;;;19.98;;
27313;SDS011;14800;48.174;9.798;2022-12-18T16:49:13;50.85;;;23.02;;